sensor_id;sensor_type;location;lat;lon;timestamp;P1;durP1;ratioP1;P2;durP2;ratioP2
34200;SDS011;20469;55.638;37.670;2023-02-26T00:01:24;25.45;;;14.43;;
34200;SDS011;20469;55.638;37.670;2023-02-26T00:03:57;23.35;;;13.77;;
34200;SDS011;20469;55.638;37.670;2023-02-26T00:06:27;26.48;;;15.20;;
34200;SDS011;20469;55.638;37.670;2023-02-26T00:08:57;21.20;;;13.50;;
34200;SDS011;20469;55.638;37.670;2023-02-26T00:11:25;19.90;;;12.80;;
34200;SDS011;20469;55.638;37.670;2023-02-26T00:13:53;23.02;;;13.43;;
34200;SDS011;20469;55.638;37.670;2023-02-26T00:16:25;21.40;;;12.93;;
34200;SDS011;20469;55.638;37.670;2023-02-26T00:18:55;18.27;;;12.00;;
34200;SDS011;20469;55.638;37.670;2023-02-26T00:21:25;19.63;;;12.63;;
34200;SDS011;20469;55.638;37.670;2023-02-26T00:23:54;20.67;;;11.75;;
34200;SDS011;20469;55.638;37.670;2023-02-26T00:26:23;19.73;;;12.68;;
34200;SDS011;20469;55.638;37.670;2023-02-26T00:28:53;16.10;;;9.35;;
34200;SDS011;20469;55.638;37.670;2023-02-26T00:31:21;19.95;;;11.55;;
34200;SDS011;20469;55.638;37.670;2023-02-26T00:33:53;19.10;;;11.43;;
34200;SDS011;20469;55.638;37.670;2023-02-26T00:41:22;19.20;;;11.73;;
34200;SDS011;20469;55.638;37.670;2023-02-26T00:43:50;16.02;;;10.05;;
34200;SDS011;20469;55.638;37.670;2023-02-26T00:46:23;14.30;;;9.70;;
34200;SDS011;20469;55.638;37.670;2023-02-26T00:49:00;15.35;;;8.82;;
34200;SDS011;20469;55.638;37.670;2023-02-26T00:51:30;21.00;;;11.57;;
34200;SDS011;20469;55.638;37.670;2023-02-26T00:56:49;14.73;;;9.88;;
34200;SDS011;20469;55.638;37.670;2023-02-26T00:59:18;11.98;;;8.48;;
34200;SDS011;20469;55.638;37.670;2023-02-26T01:01:47;16.23;;;10.27;;
34200;SDS011;20469;55.638;37.670;2023-02-26T01:04:16;13.15;;;8.40;;
34200;SDS011;20469;55.638;37.670;2023-02-26T01:06:47;12.60;;;8.70;;
34200;SDS011;20469;55.638;37.670;2023-02-26T01:09:42;11.98;;;8.00;;
34200;SDS011;20469;55.638;37.670;2023-02-26T01:12:10;10.98;;;7.38;;
34200;SDS011;20469;55.638;37.670;2023-02-26T01:14:39;10.68;;;7.10;;
34200;SDS011;20469;55.638;37.670;2023-02-26T01:20:13;9.80;;;6.53;;
34200;SDS011;20469;55.638;37.670;2023-02-26T01:23:06;10.13;;;6.80;;
34200;SDS011;20469;55.638;37.670;2023-02-26T01:25:39;8.82;;;6.57;;
34200;SDS011;20469;55.638;37.670;2023-02-26T01:28:20;8.13;;;5.82;;
34200;SDS011;20469;55.638;37.670;2023-02-26T01:30:49;8.57;;;5.80;;
34200;SDS011;20469;55.638;37.670;2023-02-26T01:35:57;10.55;;;6.00;;
34200;SDS011;20469;55.638;37.670;2023-02-26T01:49:20;5.78;;;4.70;;
34200;SDS011;20469;55.638;37.670;2023-02-26T01:51:49;6.93;;;5.28;;
34200;SDS011;20469;55.638;37.670;2023-02-26T01:54:22;6.38;;;4.97;;
34200;SDS011;20469;55.638;37.670;2023-02-26T01:59:35;5.60;;;4.20;;
34200;SDS011;20469;55.638;37.670;2023-02-26T02:02:06;5.40;;;4.00;;
34200;SDS011;20469;55.638;37.670;2023-02-26T02:04:36;5.70;;;4.60;;
34200;SDS011;20469;55.638;37.670;2023-02-26T02:07:05;5.82;;;4.80;;
34200;SDS011;20469;55.638;37.670;2023-02-26T02:09:33;6.10;;;4.53;;
34200;SDS011;20469;55.638;37.670;2023-02-26T02:12:20;7.45;;;5.10;;
34200;SDS011;20469;55.638;37.670;2023-02-26T02:28:55;8.15;;;5.65;;
34200;SDS011;20469;55.638;37.670;2023-02-26T02:31:27;7.75;;;5.55;;
34200;SDS011;20469;55.638;37.670;2023-02-26T02:34:11;8.68;;;5.75;;
34200;SDS011;20469;55.638;37.670;2023-02-26T02:37:18;8.85;;;6.03;;
34200;SDS011;20469;55.638;37.670;2023-02-26T02:39:55;8.52;;;5.97;;
34200;SDS011;20469;55.638;37.670;2023-02-26T02:42:29;9.82;;;6.20;;
34200;SDS011;20469;55.638;37.670;2023-02-26T02:45:06;7.78;;;5.68;;
34200;SDS011;20469;55.638;37.670;2023-02-26T02:47:48;7.78;;;5.75;;
34200;SDS011;20469;55.638;37.670;2023-02-26T02:50:21;7.63;;;6.03;;
34200;SDS011;20469;55.638;37.670;2023-02-26T02:55:54;8.93;;;6.30;;
34200;SDS011;20469;55.638;37.670;2023-02-26T02:58:29;8.88;;;5.93;;
34200;SDS011;20469;55.638;37.670;2023-02-26T03:01:03;8.38;;;6.07;;
34200;SDS011;20469;55.638;37.670;2023-02-26T03:03:44;10.75;;;7.18;;
34200;SDS011;20469;55.638;37.670;2023-02-26T03:06:19;12.20;;;8.23;;
34200;SDS011;20469;55.638;37.670;2023-02-26T03:08:46;12.82;;;8.60;;
34200;SDS011;20469;55.638;37.670;2023-02-26T03:11:15;15.25;;;9.60;;
34200;SDS011;20469;55.638;37.670;2023-02-26T03:13:43;20.48;;;13.02;;
34200;SDS011;20469;55.638;37.670;2023-02-26T03:16:19;21.17;;;13.55;;
34200;SDS011;20469;55.638;37.670;2023-02-26T03:21:47;16.23;;;9.95;;
34200;SDS011;20469;55.638;37.670;2023-02-26T03:24:28;10.63;;;7.30;;
34200;SDS011;20469;55.638;37.670;2023-02-26T03:27:40;8.88;;;6.30;;
34200;SDS011;20469;55.638;37.670;2023-02-26T03:30:06;7.70;;;5.85;;
34200;SDS011;20469;55.638;37.670;2023-02-26T03:32:51;9.35;;;5.88;;
34200;SDS011;20469;55.638;37.670;2023-02-26T03:38:04;6.55;;;5.15;;
34200;SDS011;20469;55.638;37.670;2023-02-26T03:40:44;7.63;;;5.28;;
34200;SDS011;20469;55.638;37.670;2023-02-26T03:43:19;9.02;;;5.65;;
34200;SDS011;20469;55.638;37.670;2023-02-26T03:46:16;8.10;;;6.03;;
34200;SDS011;20469;55.638;37.670;2023-02-26T03:48:49;8.90;;;6.18;;
34200;SDS011;20469;55.638;37.670;2023-02-26T03:51:18;7.50;;;5.82;;
34200;SDS011;20469;55.638;37.670;2023-02-26T03:54:13;7.63;;;5.80;;
34200;SDS011;20469;55.638;37.670;2023-02-26T03:56:45;8.50;;;5.72;;
34200;SDS011;20469;55.638;37.670;2023-02-26T03:59:14;7.60;;;5.90;;
34200;SDS011;20469;55.638;37.670;2023-02-26T04:04:12;5.10;;;3.90;;
34200;SDS011;20469;55.638;37.670;2023-02-26T04:07:08;9.50;;;6.22;;
34200;SDS011;20469;55.638;37.670;2023-02-26T04:09:41;7.90;;;5.57;;
34200;SDS011;20469;55.638;37.670;2023-02-26T04:12:09;6.85;;;5.30;;
34200;SDS011;20469;55.638;37.670;2023-02-26T04:14:37;6.97;;;5.03;;
34200;SDS011;20469;55.638;37.670;2023-02-26T04:17:04;6.95;;;5.25;;
34200;SDS011;20469;55.638;37.670;2023-02-26T04:19:32;8.80;;;5.15;;
34200;SDS011;20469;55.638;37.670;2023-02-26T04:21:59;7.18;;;5.93;;
34200;SDS011;20469;55.638;37.670;2023-02-26T04:24:27;6.97;;;4.93;;
34200;SDS011;20469;55.638;37.670;2023-02-26T04:26:54;7.13;;;5.20;;
34200;SDS011;20469;55.638;37.670;2023-02-26T04:29:22;7.95;;;4.95;;
34200;SDS011;20469;55.638;37.670;2023-02-26T04:31:49;6.05;;;4.75;;
34200;SDS011;20469;55.638;37.670;2023-02-26T04:34:17;6.72;;;4.85;;
34200;SDS011;20469;55.638;37.670;2023-02-26T04:36:44;6.70;;;5.30;;
34200;SDS011;20469;55.638;37.670;2023-02-26T04:39:11;7.20;;;4.78;;
34200;SDS011;20469;55.638;37.670;2023-02-26T04:41:39;7.43;;;5.05;;
34200;SDS011;20469;55.638;37.670;2023-02-26T04:44:06;5.00;;;4.40;;
34200;SDS011;20469;55.638;37.670;2023-02-26T04:46:34;5.78;;;4.50;;
34200;SDS011;20469;55.638;37.670;2023-02-26T04:49:01;6.38;;;3.30;;
34200;SDS011;20469;55.638;37.670;2023-02-26T04:51:29;5.50;;;3.47;;
34200;SDS011;20469;55.638;37.670;2023-02-26T04:53:56;6.88;;;4.53;;
34200;SDS011;20469;55.638;37.670;2023-02-26T04:56:26;3.92;;;3.33;;
34200;SDS011;20469;55.638;37.670;2023-02-26T04:58:54;3.45;;;3.10;;
34200;SDS011;20469;55.638;37.670;2023-02-26T05:01:21;3.33;;;2.70;;
34200;SDS011;20469;55.638;37.670;2023-02-26T05:03:49;3.50;;;3.20;;
34200;SDS011;20469;55.638;37.670;2023-02-26T05:06:19;2.38;;;1.90;;
34200;SDS011;20469;55.638;37.670;2023-02-26T05:08:46;3.65;;;2.58;;
34200;SDS011;20469;55.638;37.670;2023-02-26T05:11:14;3.05;;;1.65;;
34200;SDS011;20469;55.638;37.670;2023-02-26T05:13:41;2.67;;;1.85;;
34200;SDS011;20469;55.638;37.670;2023-02-26T05:16:09;2.53;;;1.42;;
34200;SDS011;20469;55.638;37.670;2023-02-26T05:18:36;1.13;;;1.00;;
34200;SDS011;20469;55.638;37.670;2023-02-26T05:21:04;1.15;;;0.80;;
34200;SDS011;20469;55.638;37.670;2023-02-26T05:23:32;2.55;;;2.20;;
34200;SDS011;20469;55.638;37.670;2023-02-26T05:26:00;2.30;;;1.65;;
34200;SDS011;20469;55.638;37.670;2023-02-26T05:28:30;1.02;;;0.93;;
34200;SDS011;20469;55.638;37.670;2023-02-26T05:30:59;2.28;;;1.45;;
34200;SDS011;20469;55.638;37.670;2023-02-26T05:33:27;1.30;;;1.20;;
34200;SDS011;20469;55.638;37.670;2023-02-26T05:35:54;0.82;;;0.82;;
34200;SDS011;20469;55.638;37.670;2023-02-26T05:38:23;1.98;;;1.35;;
34200;SDS011;20469;55.638;37.670;2023-02-26T05:40:54;1.90;;;0.90;;
34200;SDS011;20469;55.638;37.670;2023-02-26T05:45:51;1.13;;;0.70;;
34200;SDS011;20469;55.638;37.670;2023-02-26T05:48:19;0.80;;;0.80;;
34200;SDS011;20469;55.638;37.670;2023-02-26T05:50:47;1.40;;;1.00;;
34200;SDS011;20469;55.638;37.670;2023-02-26T05:53:15;1.35;;;1.13;;
34200;SDS011;20469;55.638;37.670;2023-02-26T05:55:43;1.63;;;1.20;;
34200;SDS011;20469;55.638;37.670;2023-02-26T05:58:10;1.40;;;1.00;;
34200;SDS011;20469;55.638;37.670;2023-02-26T06:00:38;1.48;;;1.05;;
34200;SDS011;20469;55.638;37.670;2023-02-26T06:03:06;2.13;;;1.20;;
34200;SDS011;20469;55.638;37.670;2023-02-26T06:05:33;1.63;;;1.38;;
34200;SDS011;20469;55.638;37.670;2023-02-26T06:08:02;1.70;;;0.90;;
34200;SDS011;20469;55.638;37.670;2023-02-26T06:10:32;1.30;;;1.17;;
34200;SDS011;20469;55.638;37.670;2023-02-26T06:13:00;0.90;;;0.90;;
34200;SDS011;20469;55.638;37.670;2023-02-26T06:15:27;1.33;;;1.23;;
34200;SDS011;20469;55.638;37.670;2023-02-26T06:17:57;1.63;;;1.30;;
34200;SDS011;20469;55.638;37.670;2023-02-26T06:20:24;1.58;;;1.48;;
34200;SDS011;20469;55.638;37.670;2023-02-26T06:22:52;1.50;;;1.40;;
34200;SDS011;20469;55.638;37.670;2023-02-26T06:25:19;1.73;;;1.20;;
34200;SDS011;20469;55.638;37.670;2023-02-26T06:27:47;1.23;;;1.10;;
34200;SDS011;20469;55.638;37.670;2023-02-26T06:30:15;1.55;;;1.00;;
34200;SDS011;20469;55.638;37.670;2023-02-26T06:32:44;1.40;;;1.30;;
34200;SDS011;20469;55.638;37.670;2023-02-26T06:35:11;2.15;;;1.20;;
34200;SDS011;20469;55.638;37.670;2023-02-26T06:37:38;1.42;;;1.33;;
34200;SDS011;20469;55.638;37.670;2023-02-26T06:40:06;1.67;;;1.20;;
34200;SDS011;20469;55.638;37.670;2023-02-26T06:42:36;1.08;;;1.00;;
34200;SDS011;20469;55.638;37.670;2023-02-26T06:45:03;0.82;;;0.80;;
34200;SDS011;20469;55.638;37.670;2023-02-26T06:47:31;1.85;;;1.48;;
34200;SDS011;20469;55.638;37.670;2023-02-26T06:49:58;2.20;;;1.33;;
34200;SDS011;20469;55.638;37.670;2023-02-26T06:52:29;2.20;;;1.38;;
34200;SDS011;20469;55.638;37.670;2023-02-26T06:54:56;1.50;;;1.38;;
34200;SDS011;20469;55.638;37.670;2023-02-26T06:57:23;1.85;;;1.70;;
34200;SDS011;20469;55.638;37.670;2023-02-26T06:59:51;1.95;;;1.58;;
34200;SDS011;20469;55.638;37.670;2023-02-26T07:02:19;3.63;;;1.90;;
34200;SDS011;20469;55.638;37.670;2023-02-26T07:04:48;2.63;;;1.55;;
34200;SDS011;20469;55.638;37.670;2023-02-26T07:07:15;2.38;;;1.50;;
34200;SDS011;20469;55.638;37.670;2023-02-26T07:09:43;1.45;;;1.30;;
34200;SDS011;20469;55.638;37.670;2023-02-26T07:12:11;4.50;;;2.10;;
34200;SDS011;20469;55.638;37.670;2023-02-26T07:14:39;2.85;;;1.38;;
34200;SDS011;20469;55.638;37.670;2023-02-26T07:17:08;2.10;;;1.63;;
34200;SDS011;20469;55.638;37.670;2023-02-26T07:19:36;3.10;;;1.70;;
34200;SDS011;20469;55.638;37.670;2023-02-26T07:22:03;2.60;;;2.22;;
34200;SDS011;20469;55.638;37.670;2023-02-26T07:24:30;3.47;;;1.63;;
34200;SDS011;20469;55.638;37.670;2023-02-26T07:26:58;4.05;;;1.70;;
34200;SDS011;20469;55.638;37.670;2023-02-26T07:29:25;2.67;;;1.55;;
34200;SDS011;20469;55.638;37.670;2023-02-26T07:31:52;2.03;;;1.83;;
34200;SDS011;20469;55.638;37.670;2023-02-26T07:34:22;1.15;;;1.05;;
34200;SDS011;20469;55.638;37.670;2023-02-26T07:36:49;1.70;;;1.58;;
34200;SDS011;20469;55.638;37.670;2023-02-26T07:39:16;2.70;;;1.80;;
34200;SDS011;20469;55.638;37.670;2023-02-26T07:41:44;1.85;;;1.58;;
34200;SDS011;20469;55.638;37.670;2023-02-26T07:44:11;2.22;;;1.50;;
34200;SDS011;20469;55.638;37.670;2023-02-26T07:46:39;2.00;;;1.50;;
34200;SDS011;20469;55.638;37.670;2023-02-26T07:49:06;2.72;;;1.80;;
34200;SDS011;20469;55.638;37.670;2023-02-26T07:51:35;2.17;;;1.30;;
34200;SDS011;20469;55.638;37.670;2023-02-26T07:54:03;4.90;;;2.30;;
34200;SDS011;20469;55.638;37.670;2023-02-26T07:56:30;3.30;;;1.60;;
34200;SDS011;20469;55.638;37.670;2023-02-26T07:58:58;2.35;;;1.58;;
34200;SDS011;20469;55.638;37.670;2023-02-26T08:01:28;1.77;;;1.67;;
34200;SDS011;20469;55.638;37.670;2023-02-26T08:03:56;3.90;;;1.63;;
34200;SDS011;20469;55.638;37.670;2023-02-26T08:06:23;3.10;;;1.60;;
34200;SDS011;20469;55.638;37.670;2023-02-26T08:08:51;1.67;;;1.30;;
34200;SDS011;20469;55.638;37.670;2023-02-26T08:11:19;1.80;;;1.10;;
34200;SDS011;20469;55.638;37.670;2023-02-26T08:13:46;1.60;;;0.98;;
34200;SDS011;20469;55.638;37.670;2023-02-26T08:16:14;2.03;;;1.40;;
34200;SDS011;20469;55.638;37.670;2023-02-26T08:18:41;3.40;;;1.30;;
34200;SDS011;20469;55.638;37.670;2023-02-26T08:21:08;2.40;;;1.20;;
34200;SDS011;20469;55.638;37.670;2023-02-26T08:23:37;1.20;;;1.10;;
34200;SDS011;20469;55.638;37.670;2023-02-26T08:26:06;1.02;;;0.90;;
34200;SDS011;20469;55.638;37.670;2023-02-26T08:28:35;3.35;;;1.50;;
34200;SDS011;20469;55.638;37.670;2023-02-26T08:31:03;0.82;;;0.73;;
34200;SDS011;20469;55.638;37.670;2023-02-26T08:33:31;1.75;;;1.45;;
34200;SDS011;20469;55.638;37.670;2023-02-26T08:35:59;1.65;;;1.40;;
34200;SDS011;20469;55.638;37.670;2023-02-26T08:38:27;1.30;;;1.10;;
34200;SDS011;20469;55.638;37.670;2023-02-26T08:40:56;1.10;;;1.00;;
34200;SDS011;20469;55.638;37.670;2023-02-26T08:43:23;0.90;;;0.90;;
34200;SDS011;20469;55.638;37.670;2023-02-26T08:45:52;1.42;;;1.10;;
34200;SDS011;20469;55.638;37.670;2023-02-26T08:48:20;0.98;;;0.88;;
34200;SDS011;20469;55.638;37.670;2023-02-26T08:50:48;2.47;;;0.90;;
34200;SDS011;20469;55.638;37.670;2023-02-26T08:53:19;1.30;;;1.10;;
34200;SDS011;20469;55.638;37.670;2023-02-26T08:55:47;8.50;;;2.90;;
34200;SDS011;20469;55.638;37.670;2023-02-26T08:58:16;1.73;;;1.10;;
34200;SDS011;20469;55.638;37.670;2023-02-26T09:00:44;2.05;;;1.50;;
34200;SDS011;20469;55.638;37.670;2023-02-26T09:03:12;1.35;;;1.10;;
34200;SDS011;20469;55.638;37.670;2023-02-26T09:05:39;1.45;;;1.17;;
34200;SDS011;20469;55.638;37.670;2023-02-26T09:08:07;3.15;;;1.98;;
34200;SDS011;20469;55.638;37.670;2023-02-26T09:10:37;14.40;;;3.28;;
34200;SDS011;20469;55.638;37.670;2023-02-26T09:13:06;9.25;;;1.70;;
34200;SDS011;20469;55.638;37.670;2023-02-26T09:15:34;2.67;;;1.67;;
34200;SDS011;20469;55.638;37.670;2023-02-26T09:18:02;3.47;;;1.35;;
34200;SDS011;20469;55.638;37.670;2023-02-26T09:20:29;2.38;;;1.17;;
34200;SDS011;20469;55.638;37.670;2023-02-26T09:22:57;1.58;;;1.23;;
34200;SDS011;20469;55.638;37.670;2023-02-26T09:25:24;1.17;;;1.00;;
34200;SDS011;20469;55.638;37.670;2023-02-26T09:27:52;2.95;;;1.52;;
34200;SDS011;20469;55.638;37.670;2023-02-26T09:30:19;1.65;;;1.00;;
34200;SDS011;20469;55.638;37.670;2023-02-26T09:32:47;1.60;;;1.10;;
34200;SDS011;20469;55.638;37.670;2023-02-26T09:35:14;1.20;;;1.10;;
34200;SDS011;20469;55.638;37.670;2023-02-26T09:37:42;1.95;;;1.25;;
34200;SDS011;20469;55.638;37.670;2023-02-26T09:40:31;1.55;;;1.13;;
34200;SDS011;20469;55.638;37.670;2023-02-26T09:45:50;2.60;;;1.25;;
34200;SDS011;20469;55.638;37.670;2023-02-26T09:48:19;6.03;;;2.85;;
34200;SDS011;20469;55.638;37.670;2023-02-26T09:50:51;2.47;;;1.50;;
34200;SDS011;20469;55.638;37.670;2023-02-26T09:53:21;2.20;;;1.17;;
34200;SDS011;20469;55.638;37.670;2023-02-26T09:56:04;2.88;;;1.20;;
34200;SDS011;20469;55.638;37.670;2023-02-26T09:58:37;2.80;;;1.30;;
34200;SDS011;20469;55.638;37.670;2023-02-26T10:01:18;1.60;;;1.25;;
34200;SDS011;20469;55.638;37.670;2023-02-26T10:04:12;1.75;;;1.08;;
34200;SDS011;20469;55.638;37.670;2023-02-26T10:07:02;1.52;;;1.17;;
34200;SDS011;20469;55.638;37.670;2023-02-26T10:12:26;1.80;;;1.33;;
34200;SDS011;20469;55.638;37.670;2023-02-26T10:19:59;3.78;;;1.65;;
34200;SDS011;20469;55.638;37.670;2023-02-26T10:25:22;1.77;;;1.50;;
34200;SDS011;20469;55.638;37.670;2023-02-26T10:30:41;1.90;;;1.40;;
34200;SDS011;20469;55.638;37.670;2023-02-26T10:33:19;1.52;;;1.40;;
34200;SDS011;20469;55.638;37.670;2023-02-26T10:35:58;1.45;;;1.35;;
34200;SDS011;20469;55.638;37.670;2023-02-26T10:38:46;1.20;;;1.10;;
34200;SDS011;20469;55.638;37.670;2023-02-26T10:41:17;1.73;;;1.23;;
34200;SDS011;20469;55.638;37.670;2023-02-26T10:52:16;3.15;;;1.98;;
34200;SDS011;20469;55.638;37.670;2023-02-26T10:55:17;2.03;;;1.40;;
34200;SDS011;20469;55.638;37.670;2023-02-26T10:57:43;1.55;;;1.38;;
34200;SDS011;20469;55.638;37.670;2023-02-26T11:00:18;2.22;;;1.42;;
34200;SDS011;20469;55.638;37.670;2023-02-26T11:02:50;1.90;;;1.10;;
34200;SDS011;20469;55.638;37.670;2023-02-26T11:05:23;2.03;;;1.42;;
34200;SDS011;20469;55.638;37.670;2023-02-26T11:07:56;2.05;;;1.40;;
34200;SDS011;20469;55.638;37.670;2023-02-26T11:10:44;1.33;;;1.15;;
34200;SDS011;20469;55.638;37.670;2023-02-26T11:13:18;2.50;;;1.30;;
34200;SDS011;20469;55.638;37.670;2023-02-26T11:15:47;1.50;;;1.30;;
34200;SDS011;20469;55.638;37.670;2023-02-26T11:18:20;1.08;;;0.93;;
34200;SDS011;20469;55.638;37.670;2023-02-26T11:21:02;3.15;;;1.75;;
34200;SDS011;20469;55.638;37.670;2023-02-26T11:23:31;2.90;;;1.80;;
34200;SDS011;20469;55.638;37.670;2023-02-26T11:26:06;1.65;;;1.25;;
34200;SDS011;20469;55.638;37.670;2023-02-26T11:28:44;1.85;;;0.93;;
34200;SDS011;20469;55.638;37.670;2023-02-26T11:31:14;1.75;;;1.25;;
34200;SDS011;20469;55.638;37.670;2023-02-26T11:33:48;2.42;;;1.35;;
34200;SDS011;20469;55.638;37.670;2023-02-26T11:36:17;1.55;;;1.20;;
34200;SDS011;20469;55.638;37.670;2023-02-26T11:42:09;1.73;;;1.02;;
34200;SDS011;20469;55.638;37.670;2023-02-26T11:44:38;13.45;;;6.20;;
34200;SDS011;20469;55.638;37.670;2023-02-26T11:47:13;5.83;;;2.73;;
34200;SDS011;20469;55.638;37.670;2023-02-26T11:49:50;5.75;;;2.33;;
34200;SDS011;20469;55.638;37.670;2023-02-26T11:52:29;1.50;;;1.27;;
34200;SDS011;20469;55.638;37.670;2023-02-26T11:57:51;3.35;;;1.60;;
34200;SDS011;20469;55.638;37.670;2023-02-26T12:00:23;2.10;;;0.95;;
34200;SDS011;20469;55.638;37.670;2023-02-26T12:02:52;2.03;;;1.20;;
34200;SDS011;20469;55.638;37.670;2023-02-26T12:05:26;2.65;;;1.35;;
34200;SDS011;20469;55.638;37.670;2023-02-26T12:07:54;4.05;;;1.40;;
34200;SDS011;20469;55.638;37.670;2023-02-26T12:10:28;1.30;;;1.20;;
34200;SDS011;20469;55.638;37.670;2023-02-26T12:13:09;4.63;;;2.60;;
34200;SDS011;20469;55.638;37.670;2023-02-26T12:21:03;2.22;;;1.30;;
34200;SDS011;20469;55.638;37.670;2023-02-26T12:37:58;1.98;;;1.23;;
34200;SDS011;20469;55.638;37.670;2023-02-26T12:43:43;3.60;;;1.85;;
34200;SDS011;20469;55.638;37.670;2023-02-26T12:54:26;7.68;;;2.63;;
34200;SDS011;20469;55.638;37.670;2023-02-26T13:08:31;2.75;;;2.13;;
34200;SDS011;20469;55.638;37.670;2023-02-26T13:11:25;3.53;;;2.58;;
34200;SDS011;20469;55.638;37.670;2023-02-26T13:19:28;3.28;;;2.65;;
34200;SDS011;20469;55.638;37.670;2023-02-26T13:22:02;55.95;;;22.08;;
34200;SDS011;20469;55.638;37.670;2023-02-26T13:24:56;7.45;;;4.47;;
34200;SDS011;20469;55.638;37.670;2023-02-26T13:27:33;5.85;;;3.05;;
34200;SDS011;20469;55.638;37.670;2023-02-26T13:30:26;3.47;;;2.70;;
34200;SDS011;20469;55.638;37.670;2023-02-26T13:32:56;3.13;;;2.67;;
34200;SDS011;20469;55.638;37.670;2023-02-26T13:38:04;4.78;;;2.83;;
34200;SDS011;20469;55.638;37.670;2023-02-26T13:41:09;4.03;;;2.65;;
34200;SDS011;20469;55.638;37.670;2023-02-26T13:51:46;4.20;;;2.45;;
34200;SDS011;20469;55.638;37.670;2023-02-26T13:56:47;4.53;;;3.00;;
34200;SDS011;20469;55.638;37.670;2023-02-26T13:59:34;4.95;;;3.58;;
34200;SDS011;20469;55.638;37.670;2023-02-26T14:02:43;3.55;;;3.00;;
34200;SDS011;20469;55.638;37.670;2023-02-26T14:05:05;4.63;;;3.60;;
34200;SDS011;20469;55.638;37.670;2023-02-26T14:07:53;5.03;;;3.88;;
34200;SDS011;20469;55.638;37.670;2023-02-26T14:13:39;5.85;;;3.60;;
34200;SDS011;20469;55.638;37.670;2023-02-26T14:18:51;5.72;;;4.40;;
34200;SDS011;20469;55.638;37.670;2023-02-26T14:24:00;7.32;;;5.35;;
34200;SDS011;20469;55.638;37.670;2023-02-26T14:26:49;6.32;;;4.93;;
34200;SDS011;20469;55.638;37.670;2023-02-26T14:29:40;5.90;;;4.03;;
34200;SDS011;20469;55.638;37.670;2023-02-26T14:34:47;6.82;;;4.60;;
34200;SDS011;20469;55.638;37.670;2023-02-26T14:37:18;8.32;;;5.95;;
34200;SDS011;20469;55.638;37.670;2023-02-26T14:42:35;6.55;;;4.88;;
34200;SDS011;20469;55.638;37.670;2023-02-26T14:47:50;6.93;;;4.85;;
34200;SDS011;20469;55.638;37.670;2023-02-26T14:50:20;7.90;;;5.75;;
34200;SDS011;20469;55.638;37.670;2023-02-26T15:01:26;6.50;;;4.78;;
34200;SDS011;20469;55.638;37.670;2023-02-26T15:04:22;5.65;;;4.00;;
34200;SDS011;20469;55.638;37.670;2023-02-26T15:12:42;8.25;;;5.90;;
34200;SDS011;20469;55.638;37.670;2023-02-26T15:15:51;10.50;;;6.47;;
34200;SDS011;20469;55.638;37.670;2023-02-26T15:24:01;12.10;;;6.97;;
34200;SDS011;20469;55.638;37.670;2023-02-26T15:26:36;9.23;;;6.25;;
34200;SDS011;20469;55.638;37.670;2023-02-26T15:29:08;9.85;;;6.35;;
34200;SDS011;20469;55.638;37.670;2023-02-26T15:31:40;10.65;;;6.63;;
34200;SDS011;20469;55.638;37.670;2023-02-26T15:34:10;9.25;;;5.55;;
34200;SDS011;20469;55.638;37.670;2023-02-26T15:36:47;9.55;;;6.07;;
34200;SDS011;20469;55.638;37.670;2023-02-26T15:39:21;8.65;;;6.47;;
34200;SDS011;20469;55.638;37.670;2023-02-26T15:41:50;10.85;;;6.28;;
34200;SDS011;20469;55.638;37.670;2023-02-26T15:44:24;11.90;;;7.55;;
34200;SDS011;20469;55.638;37.670;2023-02-26T15:47:01;9.15;;;6.78;;
34200;SDS011;20469;55.638;37.670;2023-02-26T15:49:35;9.18;;;6.60;;
34200;SDS011;20469;55.638;37.670;2023-02-26T15:52:10;8.98;;;6.68;;
34200;SDS011;20469;55.638;37.670;2023-02-26T15:54:52;7.95;;;5.22;;
34200;SDS011;20469;55.638;37.670;2023-02-26T15:57:25;7.93;;;5.35;;
34200;SDS011;20469;55.638;37.670;2023-02-26T15:59:59;9.75;;;5.97;;
34200;SDS011;20469;55.638;37.670;2023-02-26T16:02:32;10.02;;;6.68;;
34200;SDS011;20469;55.638;37.670;2023-02-26T16:05:00;10.13;;;6.85;;
34200;SDS011;20469;55.638;37.670;2023-02-26T16:07:29;9.98;;;6.53;;
34200;SDS011;20469;55.638;37.670;2023-02-26T16:10:03;10.85;;;6.65;;
34200;SDS011;20469;55.638;37.670;2023-02-26T16:12:41;9.63;;;6.18;;
34200;SDS011;20469;55.638;37.670;2023-02-26T16:15:27;6.28;;;4.18;;
34200;SDS011;20469;55.638;37.670;2023-02-26T16:17:58;9.05;;;7.15;;
34200;SDS011;20469;55.638;37.670;2023-02-26T16:20:28;11.00;;;6.97;;
34200;SDS011;20469;55.638;37.670;2023-02-26T16:23:09;9.25;;;6.53;;
34200;SDS011;20469;55.638;37.670;2023-02-26T16:25:57;9.25;;;6.13;;
34200;SDS011;20469;55.638;37.670;2023-02-26T16:28:30;7.97;;;4.68;;
34200;SDS011;20469;55.638;37.670;2023-02-26T16:31:16;10.13;;;6.50;;
34200;SDS011;20469;55.638;37.670;2023-02-26T16:36:45;10.45;;;6.65;;
34200;SDS011;20469;55.638;37.670;2023-02-26T16:39:16;8.82;;;5.88;;
34200;SDS011;20469;55.638;37.670;2023-02-26T16:41:59;12.63;;;7.53;;
34200;SDS011;20469;55.638;37.670;2023-02-26T16:47:49;10.45;;;6.60;;
34200;SDS011;20469;55.638;37.670;2023-02-26T16:50:19;9.05;;;5.93;;
34200;SDS011;20469;55.638;37.670;2023-02-26T16:52:58;9.93;;;6.50;;
34200;SDS011;20469;55.638;37.670;2023-02-26T16:55:45;7.82;;;4.82;;
34200;SDS011;20469;55.638;37.670;2023-02-26T17:00:45;8.90;;;5.97;;
34200;SDS011;20469;55.638;37.670;2023-02-26T17:03:19;8.07;;;5.43;;
34200;SDS011;20469;55.638;37.670;2023-02-26T17:08:26;9.60;;;5.40;;
34200;SDS011;20469;55.638;37.670;2023-02-26T17:13:30;7.70;;;5.47;;
34200;SDS011;20469;55.638;37.670;2023-02-26T17:16:04;9.05;;;5.90;;
34200;SDS011;20469;55.638;37.670;2023-02-26T17:18:34;10.23;;;6.57;;
34200;SDS011;20469;55.638;37.670;2023-02-26T17:21:02;11.13;;;6.82;;
34200;SDS011;20469;55.638;37.670;2023-02-26T17:23:32;11.13;;;6.90;;
34200;SDS011;20469;55.638;37.670;2023-02-26T17:26:03;13.05;;;7.22;;
34200;SDS011;20469;55.638;37.670;2023-02-26T17:28:33;11.15;;;6.97;;
34200;SDS011;20469;55.638;37.670;2023-02-26T17:31:03;10.38;;;6.90;;
34200;SDS011;20469;55.638;37.670;2023-02-26T17:33:31;11.93;;;6.82;;
34200;SDS011;20469;55.638;37.670;2023-02-26T17:36:01;7.28;;;5.35;;
34200;SDS011;20469;55.638;37.670;2023-02-26T17:38:33;8.15;;;5.47;;
34200;SDS011;20469;55.638;37.670;2023-02-26T17:41:00;7.57;;;5.53;;
34200;SDS011;20469;55.638;37.670;2023-02-26T17:43:29;9.10;;;5.85;;
34200;SDS011;20469;55.638;37.670;2023-02-26T17:45:56;8.35;;;5.80;;
34200;SDS011;20469;55.638;37.670;2023-02-26T17:48:24;8.02;;;5.38;;
34200;SDS011;20469;55.638;37.670;2023-02-26T17:51:12;7.20;;;5.43;;
34200;SDS011;20469;55.638;37.670;2023-02-26T17:53:41;8.90;;;5.82;;
34200;SDS011;20469;55.638;37.670;2023-02-26T17:56:22;9.40;;;5.93;;
34200;SDS011;20469;55.638;37.670;2023-02-26T17:58:56;7.63;;;5.30;;
34200;SDS011;20469;55.638;37.670;2023-02-26T18:01:24;5.53;;;3.90;;
34200;SDS011;20469;55.638;37.670;2023-02-26T18:03:54;13.35;;;7.30;;
34200;SDS011;20469;55.638;37.670;2023-02-26T18:06:23;7.90;;;5.65;;
34200;SDS011;20469;55.638;37.670;2023-02-26T18:08:56;20.60;;;9.55;;
34200;SDS011;20469;55.638;37.670;2023-02-26T18:11:24;32.25;;;13.63;;
34200;SDS011;20469;55.638;37.670;2023-02-26T18:13:52;8.48;;;5.70;;
34200;SDS011;20469;55.638;37.670;2023-02-26T18:16:31;10.55;;;5.55;;
34200;SDS011;20469;55.638;37.670;2023-02-26T18:19:07;8.50;;;4.50;;